createdAt,value
2022-10-22T00:01:45.663Z,3.40
2022-10-22T00:04:14.251Z,3.22
2022-10-22T00:06:45.002Z,3.03
2022-10-22T00:09:13.717Z,2.42
2022-10-22T00:11:43.890Z,2.40
2022-10-22T00:14:12.500Z,2.05
2022-10-22T00:16:41.061Z,2.00
2022-10-22T00:19:11.305Z,2.25
2022-10-22T00:21:39.849Z,2.38
2022-10-22T00:24:08.505Z,2.20
2022-10-22T00:26:37.072Z,2.20
2022-10-22T00:29:07.266Z,1.92
2022-10-22T00:31:35.936Z,2.33
2022-10-22T00:34:04.839Z,2.03
2022-10-22T00:36:33.418Z,2.08
2022-10-22T00:39:01.985Z,2.10
2022-10-22T00:41:30.708Z,2.25
2022-10-22T00:44:00.801Z,1.92
2022-10-22T00:46:31.077Z,2.00
2022-10-22T00:49:01.301Z,2.08
2022-10-22T00:51:30.764Z,2.30
2022-10-22T00:54:01.888Z,2.70
2022-10-22T00:56:30.469Z,1.80
2022-10-22T00:59:00.078Z,2.08
2022-10-22T01:01:30.996Z,1.80
2022-10-22T01:04:01.237Z,2.10
2022-10-22T01:06:31.407Z,2.05
2022-10-22T01:09:07.712Z,1.80
2022-10-22T01:11:40.652Z,2.13
2022-10-22T01:14:15.594Z,2.10
2022-10-22T01:16:49.065Z,2.30
2022-10-22T01:19:40.621Z,1.90
2022-10-22T01:22:12.602Z,2.20
2022-10-22T01:24:49.864Z,1.98
2022-10-22T01:27:23.537Z,1.88
2022-10-22T01:29:54.308Z,1.90
2022-10-22T01:32:24.225Z,1.77
2022-10-22T01:34:56.223Z,2.10
2022-10-22T01:37:26.477Z,1.70
2022-10-22T01:39:55.154Z,1.60
2022-10-22T01:42:23.781Z,2.05
2022-10-22T01:44:53.775Z,1.95
2022-10-22T01:47:29.465Z,1.90
2022-10-22T01:50:11.111Z,1.92
2022-10-22T01:52:45.974Z,2.00
2022-10-22T01:55:20.015Z,2.28
2022-10-22T01:57:51.489Z,1.88
2022-10-22T02:00:22.142Z,2.10
2022-10-22T02:02:58.336Z,1.75
2022-10-22T02:05:30.693Z,1.65
2022-10-22T02:08:01.935Z,1.90
2022-10-22T02:10:31.393Z,1.70
2022-10-22T02:13:01.553Z,2.03
2022-10-22T02:15:34.825Z,1.52
2022-10-22T02:18:04.118Z,1.85
2022-10-22T02:20:34.977Z,2.40
2022-10-22T02:23:04.304Z,1.73
2022-10-22T02:25:34.705Z,2.15
2022-10-22T02:28:06.852Z,2.15
2022-10-22T02:30:37.961Z,2.25
2022-10-22T02:33:10.088Z,2.15
2022-10-22T02:35:39.356Z,2.00
2022-10-22T02:38:08.285Z,1.90
2022-10-22T02:40:37.272Z,2.00
2022-10-22T02:43:07.260Z,2.13
2022-10-22T02:45:37.609Z,1.90
2022-10-22T02:48:06.496Z,1.90
2022-10-22T02:50:35.101Z,1.98
2022-10-22T02:53:03.696Z,2.00
2022-10-22T02:55:32.244Z,2.05
2022-10-22T02:58:00.816Z,1.90
2022-10-22T03:00:29.798Z,2.20
2022-10-22T03:02:59.728Z,1.80
2022-10-22T03:05:28.307Z,2.03
2022-10-22T03:07:56.852Z,1.98
2022-10-22T03:10:25.432Z,1.70
2022-10-22T03:12:53.997Z,2.30
2022-10-22T03:15:22.591Z,1.80
2022-10-22T03:17:51.226Z,2.22
2022-10-22T03:20:21.157Z,2.00
2022-10-22T03:22:49.770Z,1.98
2022-10-22T03:25:20.164Z,1.90
2022-10-22T03:27:49.149Z,2.10
2022-10-22T03:30:17.698Z,2.00
2022-10-22T03:32:46.332Z,2.10
2022-10-22T03:35:14.905Z,2.15
2022-10-22T03:37:44.893Z,1.85
2022-10-22T03:40:13.784Z,1.80
2022-10-22T03:42:43.257Z,1.77
2022-10-22T03:45:12.389Z,1.92
2022-10-22T03:47:41.434Z,1.70
2022-10-22T03:50:10.905Z,1.90
2022-10-22T03:52:39.869Z,2.20
2022-10-22T03:55:10.523Z,1.95
2022-10-22T03:57:39.509Z,2.00
2022-10-22T04:00:09.036Z,1.80
2022-10-22T04:02:39.274Z,1.88
2022-10-22T04:05:08.372Z,1.90
2022-10-22T04:07:37.285Z,1.70
2022-10-22T04:10:06.458Z,2.00
2022-10-22T04:12:36.585Z,2.38
2022-10-22T04:15:05.446Z,2.10
2022-10-22T04:17:37.283Z,2.00
2022-10-22T04:20:06.301Z,2.33
2022-10-22T04:22:35.785Z,1.83
2022-10-22T04:25:04.559Z,2.00
2022-10-22T04:27:33.218Z,1.90
2022-10-22T04:30:03.231Z,2.03
2022-10-22T04:32:31.816Z,2.00
2022-10-22T04:35:00.473Z,1.90
2022-10-22T04:37:29.153Z,2.08
2022-10-22T04:39:58.300Z,1.83
2022-10-22T04:42:27.071Z,2.28
2022-10-22T04:44:55.611Z,2.30
2022-10-22T04:47:25.553Z,2.35
2022-10-22T04:49:54.144Z,1.95
2022-10-22T04:52:22.708Z,2.20
2022-10-22T04:54:51.269Z,2.33
2022-10-22T04:57:19.829Z,2.20
2022-10-22T04:59:48.381Z,2.05
2022-10-22T05:02:16.968Z,2.08
2022-10-22T05:04:47.477Z,2.28
2022-10-22T05:07:16.061Z,2.10
2022-10-22T05:09:44.621Z,1.95
2022-10-22T05:12:13.242Z,2.20
2022-10-22T05:14:44.095Z,2.03
2022-10-22T05:17:13.546Z,2.25
2022-10-22T05:19:42.089Z,1.70
2022-10-22T05:22:12.069Z,2.03
2022-10-22T05:24:40.746Z,2.03
2022-10-22T05:27:09.339Z,1.90
2022-10-22T05:29:38.009Z,2.08
2022-10-22T05:32:06.761Z,2.42
2022-10-22T05:34:36.207Z,2.30
2022-10-22T05:37:04.808Z,2.25
2022-10-22T05:39:36.877Z,2.05
2022-10-22T05:42:05.706Z,2.15
2022-10-22T05:44:34.240Z,2.10
2022-10-22T05:47:02.793Z,2.20
2022-10-22T05:49:31.358Z,2.20
2022-10-22T05:51:59.901Z,2.72
2022-10-22T05:54:28.505Z,2.50
2022-10-22T05:56:58.452Z,2.92
2022-10-22T05:59:27.205Z,3.05
2022-10-22T06:01:55.840Z,2.30
2022-10-22T06:04:24.521Z,2.78
2022-10-22T06:06:55.269Z,2.20
2022-10-22T06:09:25.533Z,2.30
2022-10-22T06:11:54.449Z,2.10
2022-10-22T06:14:24.737Z,2.38
2022-10-22T06:16:53.612Z,2.50
2022-10-22T06:19:23.321Z,2.22
2022-10-22T06:21:51.968Z,1.90
2022-10-22T06:24:20.684Z,2.33
2022-10-22T06:26:51.533Z,2.10
2022-10-22T06:29:20.164Z,2.55
2022-10-22T06:31:50.232Z,2.30
2022-10-22T06:34:19.123Z,2.28
2022-10-22T06:36:48.096Z,2.60
2022-10-22T06:39:17.663Z,2.70
2022-10-22T06:41:46.959Z,2.70
2022-10-22T06:44:20.364Z,2.63
2022-10-22T06:46:52.819Z,2.50
2022-10-22T06:49:21.861Z,2.38
2022-10-22T06:51:51.569Z,3.40
2022-10-22T06:54:20.575Z,3.70
2022-10-22T06:56:49.349Z,3.25
2022-10-22T06:59:17.985Z,3.53
2022-10-22T07:01:46.656Z,3.85
2022-10-22T07:04:17.224Z,6.05
2022-10-22T07:06:45.880Z,5.70
2022-10-22T07:09:14.812Z,6.00
2022-10-22T07:11:44.213Z,5.78
2022-10-22T07:14:13.426Z,5.07
2022-10-22T07:16:43.244Z,5.63
2022-10-22T07:19:11.894Z,5.45
2022-10-22T07:21:42.422Z,6.55
2022-10-22T07:24:11.116Z,5.72
2022-10-22T07:26:39.704Z,4.45
2022-10-22T07:29:10.053Z,3.75
2022-10-22T07:31:39.771Z,3.10
2022-10-22T07:34:08.364Z,3.90
2022-10-22T07:36:37.143Z,4.28
2022-10-22T07:39:07.294Z,4.57
2022-10-22T07:41:35.856Z,4.07
2022-10-22T07:44:04.477Z,4.45
2022-10-22T07:46:35.217Z,4.00
2022-10-22T07:49:03.753Z,3.58
2022-10-22T07:51:32.295Z,3.45
2022-10-22T07:54:00.873Z,3.15
2022-10-22T07:56:30.792Z,3.38
2022-10-22T07:58:59.388Z,3.72
2022-10-22T08:01:28.033Z,3.97
2022-10-22T08:03:56.645Z,4.22
2022-10-22T08:06:25.189Z,3.92
2022-10-22T08:08:53.826Z,3.95
2022-10-22T08:11:22.496Z,4.60
2022-10-22T08:13:52.420Z,3.67
2022-10-22T08:16:21.502Z,4.10
2022-10-22T08:18:50.088Z,4.05
2022-10-22T08:21:18.666Z,4.10
2022-10-22T08:23:47.247Z,4.32
2022-10-22T08:26:15.844Z,5.22
2022-10-22T08:28:44.435Z,4.72
2022-10-22T08:31:14.456Z,4.60
2022-10-22T08:33:43.359Z,4.20
2022-10-22T08:36:12.096Z,5.30
2022-10-22T08:38:40.634Z,4.82
2022-10-22T08:41:11.914Z,4.78
2022-10-22T08:43:59.177Z,4.30
2022-10-22T08:46:34.418Z,3.75
2022-10-22T08:49:05.043Z,4.80
2022-10-22T08:51:36.225Z,4.20
2022-10-22T08:54:10.769Z,4.20
2022-10-22T08:56:40.123Z,4.40
2022-10-22T08:59:12.323Z,4.55
2022-10-22T09:01:44.525Z,4.40
2022-10-22T09:04:25.173Z,4.53
2022-10-22T09:06:54.969Z,4.90
2022-10-22T09:09:23.884Z,4.63
2022-10-22T09:11:53.283Z,4.68
2022-10-22T09:14:22.725Z,5.10
2022-10-22T09:17:04.907Z,5.45
2022-10-22T09:19:37.741Z,4.97
2022-10-22T09:22:13.485Z,5.20
2022-10-22T09:24:43.859Z,4.55
2022-10-22T09:27:13.279Z,4.97
2022-10-22T09:29:42.123Z,5.03
2022-10-22T09:32:12.329Z,5.25
2022-10-22T09:34:41.022Z,5.15
2022-10-22T09:37:10.494Z,5.68
2022-10-22T09:39:40.949Z,5.45
2022-10-22T09:42:09.870Z,5.70
2022-10-22T09:44:41.127Z,4.97
2022-10-22T09:47:43.022Z,5.40
2022-10-22T09:50:24.490Z,5.47
2022-10-22T09:53:03.216Z,5.50
2022-10-22T09:55:31.927Z,4.75
2022-10-22T09:58:01.838Z,5.30
2022-10-22T10:00:31.588Z,5.50
2022-10-22T10:03:02.171Z,4.93
2022-10-22T10:05:32.135Z,5.43
2022-10-22T10:08:01.841Z,5.70
2022-10-22T10:10:34.298Z,5.50
2022-10-22T10:13:05.201Z,5.55
2022-10-22T10:15:37.154Z,5.70
2022-10-22T10:18:13.102Z,6.50
2022-10-22T10:20:43.335Z,5.85
2022-10-22T10:23:16.081Z,6.28
2022-10-22T10:25:50.324Z,6.03
2022-10-22T10:28:23.541Z,6.75
2022-10-22T10:30:56.633Z,5.78
2022-10-22T10:33:31.008Z,5.43
2022-10-22T10:36:03.139Z,5.95
2022-10-22T10:38:36.605Z,6.10
2022-10-22T10:41:09.964Z,6.35
2022-10-22T10:43:43.566Z,5.32
2022-10-22T10:48:57.381Z,5.50
2022-10-22T10:51:34.112Z,5.90
2022-10-22T10:54:07.682Z,5.70
2022-10-22T10:56:40.026Z,5.85
2022-10-22T10:59:20.474Z,6.38
2022-10-22T11:01:55.808Z,5.65
2022-10-22T11:04:42.344Z,6.20
2022-10-22T11:07:23.366Z,6.03
2022-10-22T11:10:04.655Z,5.80
2022-10-22T11:12:35.222Z,5.93
2022-10-22T11:15:05.131Z,6.05
2022-10-22T11:17:36.797Z,5.60
2022-10-22T11:20:08.368Z,6.20
2022-10-22T11:22:50.392Z,6.50
2022-10-22T11:25:24.905Z,6.65
2022-10-22T11:27:58.525Z,7.15
2022-10-22T11:30:32.185Z,7.32
2022-10-22T11:33:02.670Z,7.28
2022-10-22T11:35:34.630Z,7.85
2022-10-22T11:38:07.112Z,7.45
2022-10-22T11:40:38.186Z,7.32
2022-10-22T11:43:07.571Z,7.65
2022-10-22T11:45:37.378Z,8.10
2022-10-22T11:48:16.269Z,8.00
2022-10-22T11:51:00.192Z,7.20
2022-10-22T11:53:34.305Z,7.38
2022-10-22T11:56:23.341Z,7.50
2022-10-22T11:58:54.828Z,7.18
2022-10-22T12:01:26.704Z,7.38
2022-10-22T12:04:01.309Z,6.80
2022-10-22T12:06:50.690Z,7.45
2022-10-22T12:09:21.495Z,6.72
2022-10-22T12:11:52.212Z,7.88
2022-10-22T12:14:26.765Z,7.47
2022-10-22T12:16:58.088Z,6.72
2022-10-22T12:19:28.729Z,7.22
2022-10-22T12:21:59.254Z,7.05
2022-10-22T12:24:32.669Z,6.80
2022-10-22T12:27:01.567Z,7.40
2022-10-22T12:29:33.166Z,6.97
2022-10-22T12:32:04.571Z,6.78
2022-10-22T12:34:33.131Z,6.93
2022-10-22T12:37:06.784Z,7.45
2022-10-22T12:39:39.656Z,7.15
2022-10-22T12:42:10.933Z,8.18
2022-10-22T12:44:41.677Z,8.23
2022-10-22T12:47:15.443Z,8.52
2022-10-22T12:49:47.018Z,7.22
2022-10-22T12:52:20.033Z,7.55
2022-10-22T12:54:53.570Z,7.80
2022-10-22T12:57:24.777Z,8.13
2022-10-22T12:59:54.404Z,8.02
2022-10-22T13:02:27.787Z,7.05
2022-10-22T13:05:22.269Z,7.75
2022-10-22T13:07:52.169Z,7.18
2022-10-22T13:10:26.673Z,6.78
2022-10-22T13:12:59.173Z,7.30
2022-10-22T13:15:34.949Z,7.60
2022-10-22T13:18:04.506Z,7.50
2022-10-22T13:20:37.348Z,7.80
2022-10-22T13:23:07.441Z,7.55
2022-10-22T13:25:38.709Z,8.20
2022-10-22T13:28:18.577Z,7.63
2022-10-22T13:30:53.985Z,8.10
2022-10-22T13:33:26.230Z,7.68
2022-10-22T13:35:55.223Z,7.25
2022-10-22T13:38:24.585Z,7.65
2022-10-22T13:40:54.751Z,7.25
2022-10-22T13:43:23.408Z,7.25
2022-10-22T13:45:55.039Z,7.47
2022-10-22T13:48:25.573Z,7.57
2022-10-22T13:50:54.914Z,7.88
2022-10-22T13:53:25.266Z,7.57
2022-10-22T13:55:55.417Z,8.02
2022-10-22T13:58:25.220Z,8.18
2022-10-22T14:00:55.698Z,7.70
2022-10-22T14:03:26.128Z,8.18
2022-10-22T14:05:54.716Z,7.72
2022-10-22T14:08:24.315Z,7.32
2022-10-22T14:10:52.966Z,7.88
2022-10-22T14:13:23.357Z,8.75
2022-10-22T14:15:53.601Z,8.68
2022-10-22T14:18:25.646Z,8.13
2022-10-22T14:20:55.727Z,7.60
2022-10-22T14:23:25.034Z,8.30
2022-10-22T14:25:54.010Z,8.52
2022-10-22T14:28:24.128Z,7.90
2022-10-22T14:30:53.269Z,9.02
2022-10-22T14:33:27.136Z,9.13
2022-10-22T14:35:59.103Z,8.65
2022-10-22T14:38:28.026Z,9.27
2022-10-22T14:40:56.883Z,8.50
2022-10-22T14:43:27.768Z,8.80
2022-10-22T14:45:56.886Z,8.57
2022-10-22T14:48:25.700Z,9.02
2022-10-22T14:50:54.268Z,8.85
2022-10-22T14:53:22.845Z,8.48
2022-10-22T14:55:55.490Z,8.85
2022-10-22T14:58:24.126Z,9.15
2022-10-22T15:00:54.380Z,9.45
2022-10-22T15:03:23.125Z,9.27
2022-10-22T15:05:53.807Z,9.23
2022-10-22T15:08:22.453Z,9.73
2022-10-22T15:10:59.214Z,9.35
2022-10-22T15:13:29.415Z,9.35
2022-10-22T15:16:00.401Z,9.43
2022-10-22T15:18:29.648Z,9.27
2022-10-22T15:21:00.624Z,9.07
2022-10-22T15:23:29.683Z,10.18
2022-10-22T15:25:59.027Z,9.65
2022-10-22T15:28:28.405Z,10.15
2022-10-22T15:30:57.532Z,10.35
2022-10-22T15:33:30.103Z,10.07
2022-10-22T15:35:59.025Z,11.18
2022-10-22T15:41:05.529Z,11.02
2022-10-22T15:43:35.227Z,11.88
2022-10-22T15:46:21.960Z,11.73
2022-10-22T15:48:54.321Z,11.27
2022-10-22T15:51:22.993Z,11.43
2022-10-22T15:53:53.109Z,12.20
2022-10-22T15:56:22.193Z,12.85
2022-10-22T15:58:54.257Z,11.82
2022-10-22T16:01:23.253Z,12.05
2022-10-22T16:04:00.031Z,12.23
2022-10-22T16:06:29.073Z,13.45
2022-10-22T16:08:59.035Z,12.73
2022-10-22T16:11:28.726Z,13.30
2022-10-22T16:13:58.069Z,13.73
2022-10-22T16:16:27.509Z,13.43
2022-10-22T16:18:57.786Z,14.20
2022-10-22T16:21:27.585Z,14.93
2022-10-22T16:23:59.390Z,14.65
2022-10-22T16:26:31.242Z,14.88
2022-10-22T16:29:00.105Z,14.73
2022-10-22T16:31:28.935Z,15.40
2022-10-22T16:33:59.362Z,15.95
2022-10-22T16:36:28.381Z,15.57
2022-10-22T16:38:57.612Z,16.35
2022-10-22T16:41:33.754Z,16.58
2022-10-22T16:44:03.360Z,16.92
2022-10-22T16:46:33.541Z,17.23
2022-10-22T16:49:03.730Z,17.33
2022-10-22T16:51:33.093Z,16.52
2022-10-22T16:54:01.630Z,17.58
2022-10-22T16:56:30.404Z,17.90
2022-10-22T16:58:59.568Z,17.30
2022-10-22T17:01:29.259Z,17.33
2022-10-22T17:03:58.488Z,17.63
2022-10-22T17:06:28.573Z,17.20
2022-10-22T17:08:57.319Z,18.25
2022-10-22T17:11:26.475Z,16.95
2022-10-22T17:13:55.865Z,16.98
2022-10-22T17:16:25.586Z,17.05
2022-10-22T17:18:55.250Z,17.65
2022-10-22T17:21:24.133Z,18.40
2022-10-22T17:23:57.163Z,18.13
2022-10-22T17:26:26.989Z,17.23
2022-10-22T17:28:56.174Z,17.60
2022-10-22T17:31:25.309Z,17.13
2022-10-22T17:33:55.011Z,17.30
2022-10-22T17:36:24.106Z,19.30
2022-10-22T17:38:54.052Z,18.15
2022-10-22T17:41:25.424Z,18.10
2022-10-22T17:43:54.073Z,18.13
2022-10-22T17:46:23.626Z,18.45
2022-10-22T17:48:52.211Z,17.88
2022-10-22T17:51:21.352Z,18.92
2022-10-22T17:53:51.234Z,18.05
2022-10-22T17:56:20.493Z,17.23
2022-10-22T17:58:50.833Z,17.88
2022-10-22T18:01:20.902Z,18.70
2022-10-22T18:03:49.576Z,17.77
2022-10-22T18:06:18.362Z,17.85
2022-10-22T18:08:47.032Z,18.45
2022-10-22T18:11:17.999Z,17.83
2022-10-22T18:13:47.628Z,17.95
2022-10-22T18:16:17.788Z,18.83
2022-10-22T18:18:47.512Z,18.17
2022-10-22T18:21:16.298Z,16.95
2022-10-22T18:23:45.142Z,17.65
2022-10-22T18:26:13.747Z,18.40
2022-10-22T18:28:42.372Z,17.85
2022-10-22T18:31:11.744Z,17.67
2022-10-22T18:33:42.125Z,18.42
2022-10-22T18:36:11.831Z,17.52
2022-10-22T18:38:40.761Z,16.98
2022-10-22T18:41:10.298Z,17.58
2022-10-22T18:43:38.942Z,16.75
2022-10-22T18:46:07.958Z,17.45
2022-10-22T18:48:36.994Z,18.00
2022-10-22T18:51:08.444Z,16.38
2022-10-22T18:53:37.173Z,17.25
2022-10-22T18:56:06.513Z,17.13
2022-10-22T18:58:39.344Z,18.00
2022-10-22T19:01:09.141Z,19.48
2022-10-22T19:03:37.953Z,18.23
2022-10-22T19:06:08.243Z,18.23
2022-10-22T19:08:37.771Z,18.70
2022-10-22T19:11:10.968Z,18.55
2022-10-22T19:13:39.712Z,17.85
2022-10-22T19:16:09.563Z,18.58
2022-10-22T19:18:39.083Z,19.05
2022-10-22T19:21:09.248Z,17.90
2022-10-22T19:23:37.829Z,17.63
2022-10-22T19:26:07.417Z,16.88
2022-10-22T19:28:36.187Z,16.50
2022-10-22T19:31:06.727Z,16.42
2022-10-22T19:33:38.357Z,15.80
2022-10-22T19:36:07.705Z,16.15
2022-10-22T19:38:39.852Z,15.77
2022-10-22T19:41:08.696Z,16.25
2022-10-22T19:43:37.289Z,16.55
2022-10-22T19:46:06.006Z,15.35
2022-10-22T19:48:34.731Z,15.23
2022-10-22T19:51:04.098Z,16.65
2022-10-22T19:53:33.022Z,15.73
2022-10-22T19:56:03.597Z,16.60
2022-10-22T19:58:32.313Z,15.68
2022-10-22T20:01:05.355Z,15.75
2022-10-22T20:03:34.569Z,17.83
2022-10-22T20:06:03.172Z,16.40
2022-10-22T20:08:32.327Z,19.00
2022-10-22T20:11:00.909Z,20.13
2022-10-22T20:13:31.102Z,25.88
2022-10-22T20:16:00.531Z,22.98
2022-10-22T20:18:29.141Z,21.88
2022-10-22T20:20:57.720Z,19.15
2022-10-22T20:23:26.256Z,18.35
2022-10-22T20:25:54.933Z,28.27
2022-10-22T20:28:23.692Z,19.25
2022-10-22T20:30:54.215Z,20.98
2022-10-22T20:33:22.911Z,27.05
2022-10-22T20:36:00.106Z,15.98
2022-10-22T20:38:28.767Z,16.75
2022-10-22T20:41:01.293Z,12.30
2022-10-22T20:43:29.939Z,7.72
2022-10-22T20:45:59.917Z,5.72
2022-10-22T20:48:31.251Z,5.80
2022-10-22T20:51:00.283Z,5.03
2022-10-22T20:53:29.284Z,5.15
2022-10-22T20:55:59.425Z,4.22
2022-10-22T20:58:30.589Z,3.95
2022-10-22T21:01:09.351Z,3.90
2022-10-22T21:03:38.444Z,3.55
2022-10-22T21:06:07.456Z,3.80
2022-10-22T21:08:36.212Z,3.47
2022-10-22T21:11:04.826Z,3.33
2022-10-22T21:13:33.614Z,3.65
2022-10-22T21:16:08.405Z,3.35
2022-10-22T21:18:37.150Z,3.13
2022-10-22T21:21:06.278Z,3.20
2022-10-22T21:23:35.241Z,2.72
2022-10-22T21:26:03.884Z,2.80
2022-10-22T21:28:35.327Z,3.00
2022-10-22T21:31:06.387Z,2.90
2022-10-22T21:33:37.364Z,3.35
2022-10-22T21:36:06.229Z,3.22
2022-10-22T21:38:35.187Z,3.53
2022-10-22T21:41:05.776Z,3.28
2022-10-22T21:43:34.364Z,3.83
2022-10-22T21:46:10.979Z,4.05
2022-10-22T21:48:40.461Z,4.90
2022-10-22T21:51:09.923Z,4.53
2022-10-22T21:53:38.924Z,4.72
2022-10-22T21:56:08.409Z,4.55
2022-10-22T21:58:37.347Z,4.35
2022-10-22T22:01:06.050Z,4.20
2022-10-22T22:03:36.081Z,3.80
2022-10-22T22:06:06.460Z,3.97
2022-10-22T22:08:35.240Z,3.25
2022-10-22T22:11:04.338Z,3.47
2022-10-22T22:13:33.013Z,3.03
2022-10-22T22:16:02.382Z,3.20
2022-10-22T22:18:31.116Z,2.80
2022-10-22T22:21:01.354Z,3.05
2022-10-22T22:23:30.008Z,3.08
2022-10-22T22:26:00.193Z,2.95
2022-10-22T22:28:28.823Z,3.15
2022-10-22T22:30:57.382Z,3.17
2022-10-22T22:33:26.233Z,3.63
2022-10-22T22:35:54.954Z,3.30
2022-10-22T22:38:25.118Z,3.58
2022-10-22T22:40:53.781Z,3.83
2022-10-22T22:43:22.380Z,3.83
2022-10-22T22:46:00.033Z,3.33
2022-10-22T22:48:28.738Z,3.35
2022-10-22T22:50:57.293Z,4.03
2022-10-22T22:53:28.145Z,3.80
2022-10-22T22:56:09.938Z,3.65
2022-10-22T22:58:43.102Z,3.72
2022-10-22T23:01:12.509Z,4.07
2022-10-22T23:03:41.464Z,3.88
2022-10-22T23:06:10.306Z,3.85
2022-10-22T23:08:40.405Z,3.85
2022-10-22T23:11:09.904Z,4.32
2022-10-22T23:13:39.239Z,4.10
2022-10-22T23:16:08.430Z,4.47
2022-10-22T23:18:37.047Z,3.80
2022-10-22T23:21:06.772Z,3.90
2022-10-22T23:23:35.701Z,4.60
2022-10-22T23:26:05.673Z,4.38
2022-10-22T23:28:34.605Z,4.50
2022-10-22T23:31:05.217Z,4.68
2022-10-22T23:33:33.872Z,4.25
2022-10-22T23:36:02.484Z,4.38
2022-10-22T23:38:31.088Z,4.65
2022-10-22T23:40:59.660Z,4.80
2022-10-22T23:43:29.822Z,4.85
2022-10-22T23:45:58.764Z,4.45
2022-10-22T23:48:27.377Z,4.47
2022-10-22T23:50:55.998Z,4.57
2022-10-22T23:53:24.606Z,4.30
2022-10-22T23:55:53.157Z,3.95
2022-10-22T23:58:21.699Z,3.97
